sensor_id;sensor_type;location;lat;lon;timestamp;temperature;humidity
34406;DHT22;20658;45.630;8.886;2022-09-16T00:01:44;20.90;75.90
34406;DHT22;20658;45.630;8.886;2022-09-16T00:04:18;20.90;75.90
34406;DHT22;20658;45.630;8.886;2022-09-16T00:06:51;20.80;75.70
34406;DHT22;20658;45.630;8.886;2022-09-16T00:09:24;20.80;76.20
34406;DHT22;20658;45.630;8.886;2022-09-16T00:11:59;20.80;75.90
34406;DHT22;20658;45.630;8.886;2022-09-16T00:14:33;20.70;76.30
34406;DHT22;20658;45.630;8.886;2022-09-16T00:17:06;20.70;76.70
34406;DHT22;20658;45.630;8.886;2022-09-16T00:19:39;20.70;76.80
34406;DHT22;20658;45.630;8.886;2022-09-16T00:22:12;20.70;77.10
34406;DHT22;20658;45.630;8.886;2022-09-16T00:24:47;20.60;76.80
34406;DHT22;20658;45.630;8.886;2022-09-16T00:27:22;20.60;76.80
34406;DHT22;20658;45.630;8.886;2022-09-16T00:29:55;20.50;76.80
34406;DHT22;20658;45.630;8.886;2022-09-16T00:32:28;20.50;76.70
34406;DHT22;20658;45.630;8.886;2022-09-16T00:35:02;20.50;76.50
34406;DHT22;20658;45.630;8.886;2022-09-16T00:37:36;20.50;76.50
34406;DHT22;20658;45.630;8.886;2022-09-16T00:40:09;20.50;76.30
34406;DHT22;20658;45.630;8.886;2022-09-16T00:42:44;20.40;76.00
34406;DHT22;20658;45.630;8.886;2022-09-16T00:45:18;20.40;75.80
34406;DHT22;20658;45.630;8.886;2022-09-16T00:47:56;20.40;75.70
34406;DHT22;20658;45.630;8.886;2022-09-16T00:50:34;20.40;75.80
34406;DHT22;20658;45.630;8.886;2022-09-16T00:53:14;20.40;75.50
34406;DHT22;20658;45.630;8.886;2022-09-16T00:55:48;20.30;75.40
34406;DHT22;20658;45.630;8.886;2022-09-16T00:58:28;20.20;75.20
34406;DHT22;20658;45.630;8.886;2022-09-16T01:01:05;20.20;75.50
34406;DHT22;20658;45.630;8.886;2022-09-16T01:03:43;20.20;75.60
34406;DHT22;20658;45.630;8.886;2022-09-16T01:06:18;20.10;77.30
34406;DHT22;20658;45.630;8.886;2022-09-16T01:08:52;20.00;77.00
34406;DHT22;20658;45.630;8.886;2022-09-16T01:11:28;20.00;76.90
34406;DHT22;20658;45.630;8.886;2022-09-16T01:14:03;20.00;76.40
34406;DHT22;20658;45.630;8.886;2022-09-16T01:17:00;20.00;77.20
34406;DHT22;20658;45.630;8.886;2022-09-16T01:19:56;19.90;78.00
34406;DHT22;20658;45.630;8.886;2022-09-16T01:22:53;19.80;78.60
34406;DHT22;20658;45.630;8.886;2022-09-16T01:25:44;19.80;78.10
34406;DHT22;20658;45.630;8.886;2022-09-16T01:28:47;19.80;77.50
34406;DHT22;20658;45.630;8.886;2022-09-16T01:31:41;19.80;76.80
34406;DHT22;20658;45.630;8.886;2022-09-16T01:34:23;19.90;75.70
34406;DHT22;20658;45.630;8.886;2022-09-16T01:37:05;19.80;75.90
34406;DHT22;20658;45.630;8.886;2022-09-16T01:39:45;19.80;75.60
34406;DHT22;20658;45.630;8.886;2022-09-16T01:42:24;19.80;75.20
34406;DHT22;20658;45.630;8.886;2022-09-16T01:45:06;19.80;74.80
34406;DHT22;20658;45.630;8.886;2022-09-16T01:47:49;19.80;74.60
34406;DHT22;20658;45.630;8.886;2022-09-16T01:50:29;19.80;74.40
34406;DHT22;20658;45.630;8.886;2022-09-16T01:53:12;19.80;74.40
34406;DHT22;20658;45.630;8.886;2022-09-16T01:55:53;19.80;74.40
34406;DHT22;20658;45.630;8.886;2022-09-16T01:58:34;19.80;74.40
34406;DHT22;20658;45.630;8.886;2022-09-16T02:01:15;19.80;74.30
34406;DHT22;20658;45.630;8.886;2022-09-16T02:03:59;19.80;74.50
34406;DHT22;20658;45.630;8.886;2022-09-16T02:06:36;19.70;74.90
34406;DHT22;20658;45.630;8.886;2022-09-16T02:09:15;19.80;74.80
34406;DHT22;20658;45.630;8.886;2022-09-16T02:11:54;19.70;74.90
34406;DHT22;20658;45.630;8.886;2022-09-16T02:14:33;19.70;75.00
34406;DHT22;20658;45.630;8.886;2022-09-16T02:17:09;19.80;74.40
34406;DHT22;20658;45.630;8.886;2022-09-16T02:19:48;19.80;74.20
34406;DHT22;20658;45.630;8.886;2022-09-16T02:22:27;19.80;74.10
34406;DHT22;20658;45.630;8.886;2022-09-16T02:25:06;19.70;74.10
34406;DHT22;20658;45.630;8.886;2022-09-16T02:27:42;19.80;74.00
34406;DHT22;20658;45.630;8.886;2022-09-16T02:30:20;19.80;73.40
34406;DHT22;20658;45.630;8.886;2022-09-16T02:32:58;19.80;73.90
34406;DHT22;20658;45.630;8.886;2022-09-16T02:35:35;19.70;74.20
34406;DHT22;20658;45.630;8.886;2022-09-16T02:38:14;19.70;74.30
34406;DHT22;20658;45.630;8.886;2022-09-16T02:40:53;19.70;74.30
34406;DHT22;20658;45.630;8.886;2022-09-16T02:43:28;19.60;74.20
34406;DHT22;20658;45.630;8.886;2022-09-16T02:46:08;19.60;74.20
34406;DHT22;20658;45.630;8.886;2022-09-16T02:48:54;19.70;74.30
34406;DHT22;20658;45.630;8.886;2022-09-16T02:51:40;19.60;74.50
34406;DHT22;20658;45.630;8.886;2022-09-16T02:54:20;19.60;74.70
34406;DHT22;20658;45.630;8.886;2022-09-16T02:56:56;19.50;74.90
34406;DHT22;20658;45.630;8.886;2022-09-16T02:59:29;19.50;75.00
34406;DHT22;20658;45.630;8.886;2022-09-16T03:02:03;19.50;75.20
34406;DHT22;20658;45.630;8.886;2022-09-16T03:04:36;19.50;75.20
34406;DHT22;20658;45.630;8.886;2022-09-16T03:07:12;19.40;75.20
34406;DHT22;20658;45.630;8.886;2022-09-16T03:09:47;19.50;75.40
34406;DHT22;20658;45.630;8.886;2022-09-16T03:12:44;19.40;75.10
34406;DHT22;20658;45.630;8.886;2022-09-16T03:15:43;19.40;75.10
34406;DHT22;20658;45.630;8.886;2022-09-16T03:18:36;19.40;75.40
34406;DHT22;20658;45.630;8.886;2022-09-16T03:21:31;19.40;74.90
34406;DHT22;20658;45.630;8.886;2022-09-16T03:24:15;19.30;74.60
34406;DHT22;20658;45.630;8.886;2022-09-16T03:26:56;19.30;74.70
34406;DHT22;20658;45.630;8.886;2022-09-16T03:29:36;19.30;74.70
34406;DHT22;20658;45.630;8.886;2022-09-16T03:32:16;19.30;74.80
34406;DHT22;20658;45.630;8.886;2022-09-16T03:34:54;19.30;74.70
34406;DHT22;20658;45.630;8.886;2022-09-16T03:37:33;19.20;74.90
34406;DHT22;20658;45.630;8.886;2022-09-16T03:40:10;19.20;75.00
34406;DHT22;20658;45.630;8.886;2022-09-16T03:42:44;19.20;75.10
34406;DHT22;20658;45.630;8.886;2022-09-16T03:45:20;19.20;75.10
34406;DHT22;20658;45.630;8.886;2022-09-16T03:47:54;19.10;74.90
34406;DHT22;20658;45.630;8.886;2022-09-16T03:50:27;19.20;74.50
34406;DHT22;20658;45.630;8.886;2022-09-16T03:53:01;19.20;73.90
34406;DHT22;20658;45.630;8.886;2022-09-16T03:55:31;19.20;73.70
34406;DHT22;20658;45.630;8.886;2022-09-16T03:58:04;19.20;73.50
34406;DHT22;20658;45.630;8.886;2022-09-16T04:00:37;19.20;73.50
34406;DHT22;20658;45.630;8.886;2022-09-16T04:03:10;19.20;73.50
34406;DHT22;20658;45.630;8.886;2022-09-16T04:05:43;19.20;73.50
34406;DHT22;20658;45.630;8.886;2022-09-16T04:08:17;19.20;73.30
34406;DHT22;20658;45.630;8.886;2022-09-16T04:10:55;19.20;73.20
34406;DHT22;20658;45.630;8.886;2022-09-16T04:13:29;19.10;73.20
34406;DHT22;20658;45.630;8.886;2022-09-16T04:16:04;19.10;73.10
34406;DHT22;20658;45.630;8.886;2022-09-16T04:18:38;19.10;73.10
34406;DHT22;20658;45.630;8.886;2022-09-16T04:21:06;19.10;73.20
34406;DHT22;20658;45.630;8.886;2022-09-16T04:23:46;19.10;73.20
34406;DHT22;20658;45.630;8.886;2022-09-16T04:26:21;19.00;73.10
34406;DHT22;20658;45.630;8.886;2022-09-16T04:28:55;19.00;73.40
34406;DHT22;20658;45.630;8.886;2022-09-16T04:31:28;19.00;73.40
34406;DHT22;20658;45.630;8.886;2022-09-16T04:34:03;19.00;73.40
34406;DHT22;20658;45.630;8.886;2022-09-16T04:36:38;19.00;73.20
34406;DHT22;20658;45.630;8.886;2022-09-16T04:39:12;19.00;73.20
34406;DHT22;20658;45.630;8.886;2022-09-16T04:41:47;19.00;72.90
34406;DHT22;20658;45.630;8.886;2022-09-16T04:44:20;19.00;72.80
34406;DHT22;20658;45.630;8.886;2022-09-16T04:46:53;19.00;72.70
34406;DHT22;20658;45.630;8.886;2022-09-16T04:49:27;18.90;72.80
34406;DHT22;20658;45.630;8.886;2022-09-16T04:52:00;18.90;72.40
34406;DHT22;20658;45.630;8.886;2022-09-16T04:54:34;18.90;72.40
34406;DHT22;20658;45.630;8.886;2022-09-16T04:57:08;18.90;72.20
34406;DHT22;20658;45.630;8.886;2022-09-16T04:59:41;18.90;72.40
34406;DHT22;20658;45.630;8.886;2022-09-16T05:02:15;18.90;72.70
34406;DHT22;20658;45.630;8.886;2022-09-16T05:04:48;18.80;73.10
34406;DHT22;20658;45.630;8.886;2022-09-16T05:07:21;18.80;73.40
34406;DHT22;20658;45.630;8.886;2022-09-16T05:09:55;18.80;73.50
34406;DHT22;20658;45.630;8.886;2022-09-16T05:12:29;18.80;73.70
34406;DHT22;20658;45.630;8.886;2022-09-16T05:15:03;18.70;73.90
34406;DHT22;20658;45.630;8.886;2022-09-16T05:17:38;18.70;74.10
34406;DHT22;20658;45.630;8.886;2022-09-16T05:20:12;18.60;73.90
34406;DHT22;20658;45.630;8.886;2022-09-16T05:22:48;18.70;74.10
34406;DHT22;20658;45.630;8.886;2022-09-16T05:25:22;18.60;74.10
34406;DHT22;20658;45.630;8.886;2022-09-16T05:27:56;18.60;74.50
34406;DHT22;20658;45.630;8.886;2022-09-16T05:30:32;18.60;74.60
34406;DHT22;20658;45.630;8.886;2022-09-16T05:33:06;18.60;74.50
34406;DHT22;20658;45.630;8.886;2022-09-16T05:35:39;18.60;74.60
34406;DHT22;20658;45.630;8.886;2022-09-16T05:38:14;18.60;74.40
34406;DHT22;20658;45.630;8.886;2022-09-16T05:40:47;18.70;74.60
34406;DHT22;20658;45.630;8.886;2022-09-16T05:43:22;18.70;74.60
34406;DHT22;20658;45.630;8.886;2022-09-16T05:45:56;18.60;74.50
34406;DHT22;20658;45.630;8.886;2022-09-16T05:48:29;18.60;74.40
34406;DHT22;20658;45.630;8.886;2022-09-16T05:51:04;18.70;74.20
34406;DHT22;20658;45.630;8.886;2022-09-16T05:53:38;18.80;73.90
34406;DHT22;20658;45.630;8.886;2022-09-16T05:56:13;18.90;73.40
34406;DHT22;20658;45.630;8.886;2022-09-16T05:58:50;19.00;72.80
34406;DHT22;20658;45.630;8.886;2022-09-16T06:01:26;19.10;72.20
34406;DHT22;20658;45.630;8.886;2022-09-16T06:04:04;19.30;72.10
34406;DHT22;20658;45.630;8.886;2022-09-16T06:06:39;19.30;71.40
34406;DHT22;20658;45.630;8.886;2022-09-16T06:09:15;19.40;70.60
34406;DHT22;20658;45.630;8.886;2022-09-16T06:11:46;19.60;70.40
34406;DHT22;20658;45.630;8.886;2022-09-16T06:17:13;19.80;69.70
34406;DHT22;20658;45.630;8.886;2022-09-16T06:19:47;20.00;69.10
34406;DHT22;20658;45.630;8.886;2022-09-16T06:22:20;20.10;69.00
34406;DHT22;20658;45.630;8.886;2022-09-16T06:24:53;20.20;68.20
34406;DHT22;20658;45.630;8.886;2022-09-16T06:27:26;20.40;67.90
34406;DHT22;20658;45.630;8.886;2022-09-16T06:29:56;20.50;67.50
34406;DHT22;20658;45.630;8.886;2022-09-16T06:32:29;20.60;67.20
34406;DHT22;20658;45.630;8.886;2022-09-16T06:35:03;20.80;67.00
34406;DHT22;20658;45.630;8.886;2022-09-16T06:37:37;20.90;66.60
34406;DHT22;20658;45.630;8.886;2022-09-16T06:40:10;21.10;66.40
34406;DHT22;20658;45.630;8.886;2022-09-16T06:42:43;21.30;65.90
34406;DHT22;20658;45.630;8.886;2022-09-16T06:45:18;21.40;65.40
34406;DHT22;20658;45.630;8.886;2022-09-16T06:47:52;21.50;65.40
34406;DHT22;20658;45.630;8.886;2022-09-16T06:50:25;21.60;65.30
34406;DHT22;20658;45.630;8.886;2022-09-16T06:52:58;21.70;65.20
34406;DHT22;20658;45.630;8.886;2022-09-16T06:55:32;21.80;65.00
34406;DHT22;20658;45.630;8.886;2022-09-16T06:58:06;22.00;65.30
34406;DHT22;20658;45.630;8.886;2022-09-16T07:00:42;22.10;64.90
34406;DHT22;20658;45.630;8.886;2022-09-16T07:03:15;22.20;64.90
34406;DHT22;20658;45.630;8.886;2022-09-16T07:05:55;22.30;64.50
34406;DHT22;20658;45.630;8.886;2022-09-16T07:08:30;22.50;63.90
34406;DHT22;20658;45.630;8.886;2022-09-16T07:11:05;22.60;63.10
34406;DHT22;20658;45.630;8.886;2022-09-16T07:13:40;22.60;62.90
34406;DHT22;20658;45.630;8.886;2022-09-16T07:16:17;22.80;62.90
34406;DHT22;20658;45.630;8.886;2022-09-16T07:18:52;23.00;62.00
34406;DHT22;20658;45.630;8.886;2022-09-16T07:21:26;23.20;61.70
34406;DHT22;20658;45.630;8.886;2022-09-16T07:24:01;23.30;61.30
34406;DHT22;20658;45.630;8.886;2022-09-16T07:26:35;23.40;61.30
34406;DHT22;20658;45.630;8.886;2022-09-16T07:29:05;23.40;61.30
34406;DHT22;20658;45.630;8.886;2022-09-16T07:31:40;23.50;62.00
34406;DHT22;20658;45.630;8.886;2022-09-16T07:34:14;23.70;62.40
34406;DHT22;20658;45.630;8.886;2022-09-16T07:36:45;23.90;61.60
34406;DHT22;20658;45.630;8.886;2022-09-16T07:39:19;24.00;60.70
34406;DHT22;20658;45.630;8.886;2022-09-16T07:41:53;24.10;60.50
34406;DHT22;20658;45.630;8.886;2022-09-16T07:44:21;24.20;60.50
34406;DHT22;20658;45.630;8.886;2022-09-16T07:46:51;24.20;60.50
34406;DHT22;20658;45.630;8.886;2022-09-16T07:49:24;24.30;60.50
34406;DHT22;20658;45.630;8.886;2022-09-16T07:51:58;24.30;60.50
34406;DHT22;20658;45.630;8.886;2022-09-16T07:54:31;24.50;61.30
34406;DHT22;20658;45.630;8.886;2022-09-16T07:56:59;24.40;62.50
34406;DHT22;20658;45.630;8.886;2022-09-16T07:59:33;24.60;62.80
34406;DHT22;20658;45.630;8.886;2022-09-16T08:02:08;24.70;62.90
34406;DHT22;20658;45.630;8.886;2022-09-16T08:04:41;24.80;62.80
34406;DHT22;20658;45.630;8.886;2022-09-16T08:07:15;24.90;62.50
34406;DHT22;20658;45.630;8.886;2022-09-16T08:09:49;24.90;62.20
34406;DHT22;20658;45.630;8.886;2022-09-16T08:12:22;25.00;62.10
34406;DHT22;20658;45.630;8.886;2022-09-16T08:14:55;25.00;62.40
34406;DHT22;20658;45.630;8.886;2022-09-16T08:17:25;24.90;63.00
34406;DHT22;20658;45.630;8.886;2022-09-16T08:19:58;25.00;63.00
34406;DHT22;20658;45.630;8.886;2022-09-16T08:22:32;25.10;63.00
34406;DHT22;20658;45.630;8.886;2022-09-16T08:25:02;25.40;62.30
34406;DHT22;20658;45.630;8.886;2022-09-16T08:27:35;25.60;62.30
34406;DHT22;20658;45.630;8.886;2022-09-16T08:30:10;25.60;63.00
34406;DHT22;20658;45.630;8.886;2022-09-16T08:32:45;25.70;62.50
34406;DHT22;20658;45.630;8.886;2022-09-16T08:35:19;25.90;62.00
34406;DHT22;20658;45.630;8.886;2022-09-16T08:37:47;26.10;61.50
34406;DHT22;20658;45.630;8.886;2022-09-16T08:40:18;26.10;61.10
34406;DHT22;20658;45.630;8.886;2022-09-16T08:42:59;25.90;61.80
34406;DHT22;20658;45.630;8.886;2022-09-16T08:45:38;26.20;61.90
34406;DHT22;20658;45.630;8.886;2022-09-16T08:48:25;26.20;61.60
34406;DHT22;20658;45.630;8.886;2022-09-16T08:51:04;26.10;62.10
34406;DHT22;20658;45.630;8.886;2022-09-16T08:53:42;26.10;63.50
34406;DHT22;20658;45.630;8.886;2022-09-16T08:56:20;26.20;63.30
34406;DHT22;20658;45.630;8.886;2022-09-16T08:58:56;26.20;63.60
34406;DHT22;20658;45.630;8.886;2022-09-16T09:01:31;26.00;63.50
34406;DHT22;20658;45.630;8.886;2022-09-16T09:04:08;26.20;63.50
34406;DHT22;20658;45.630;8.886;2022-09-16T09:06:49;26.20;63.50
34406;DHT22;20658;45.630;8.886;2022-09-16T09:09:40;26.40;62.80
34406;DHT22;20658;45.630;8.886;2022-09-16T09:12:26;26.40;61.10
34406;DHT22;20658;45.630;8.886;2022-09-16T09:15:19;26.40;61.20
34406;DHT22;20658;45.630;8.886;2022-09-16T09:17:56;26.70;60.70
34406;DHT22;20658;45.630;8.886;2022-09-16T09:20:43;26.30;60.20
34406;DHT22;20658;45.630;8.886;2022-09-16T09:23:31;26.90;60.00
34406;DHT22;20658;45.630;8.886;2022-09-16T09:26:19;27.00;60.30
34406;DHT22;20658;45.630;8.886;2022-09-16T09:29:01;27.20;59.60
34406;DHT22;20658;45.630;8.886;2022-09-16T09:31:49;27.10;58.50
34406;DHT22;20658;45.630;8.886;2022-09-16T09:34:32;26.60;57.80
34406;DHT22;20658;45.630;8.886;2022-09-16T09:37:28;26.50;58.70
34406;DHT22;20658;45.630;8.886;2022-09-16T09:40:12;26.80;56.90
34406;DHT22;20658;45.630;8.886;2022-09-16T09:42:50;27.00;55.30
34406;DHT22;20658;45.630;8.886;2022-09-16T09:45:42;27.20;55.50
34406;DHT22;20658;45.630;8.886;2022-09-16T09:48:19;27.60;55.50
34406;DHT22;20658;45.630;8.886;2022-09-16T09:50:55;27.70;55.80
34406;DHT22;20658;45.630;8.886;2022-09-16T09:53:33;27.90;54.90
34406;DHT22;20658;45.630;8.886;2022-09-16T09:56:15;27.90;52.40
34406;DHT22;20658;45.630;8.886;2022-09-16T09:58:57;27.80;51.50
34406;DHT22;20658;45.630;8.886;2022-09-16T10:01:35;28.10;53.50
34406;DHT22;20658;45.630;8.886;2022-09-16T10:04:11;28.30;53.60
34406;DHT22;20658;45.630;8.886;2022-09-16T10:06:47;28.10;52.80
34406;DHT22;20658;45.630;8.886;2022-09-16T10:09:23;28.10;52.10
34406;DHT22;20658;45.630;8.886;2022-09-16T10:11:57;28.10;51.20
34406;DHT22;20658;45.630;8.886;2022-09-16T10:14:34;28.00;51.20
34406;DHT22;20658;45.630;8.886;2022-09-16T10:17:15;28.30;50.20
34406;DHT22;20658;45.630;8.886;2022-09-16T10:19:51;28.10;49.80
34406;DHT22;20658;45.630;8.886;2022-09-16T10:22:27;28.10;49.50
34406;DHT22;20658;45.630;8.886;2022-09-16T10:25:04;28.20;49.30
34406;DHT22;20658;45.630;8.886;2022-09-16T10:27:39;28.30;49.30
34406;DHT22;20658;45.630;8.886;2022-09-16T10:30:15;28.30;48.80
34406;DHT22;20658;45.630;8.886;2022-09-16T10:32:54;28.10;49.70
34406;DHT22;20658;45.630;8.886;2022-09-16T10:35:30;28.10;49.70
34406;DHT22;20658;45.630;8.886;2022-09-16T10:38:14;28.40;49.90
34406;DHT22;20658;45.630;8.886;2022-09-16T10:40:51;28.50;48.90
34406;DHT22;20658;45.630;8.886;2022-09-16T10:43:26;28.60;48.40
34406;DHT22;20658;45.630;8.886;2022-09-16T10:45:57;28.90;48.40
34406;DHT22;20658;45.630;8.886;2022-09-16T10:48:31;28.80;47.80
34406;DHT22;20658;45.630;8.886;2022-09-16T10:51:20;28.80;47.80
34406;DHT22;20658;45.630;8.886;2022-09-16T10:53:56;29.00;46.40
34406;DHT22;20658;45.630;8.886;2022-09-16T10:56:28;29.10;45.30
34406;DHT22;20658;45.630;8.886;2022-09-16T10:59:02;29.20;45.20
34406;DHT22;20658;45.630;8.886;2022-09-16T11:01:42;29.20;45.00
34406;DHT22;20658;45.630;8.886;2022-09-16T11:04:30;28.90;44.60
34406;DHT22;20658;45.630;8.886;2022-09-16T11:07:17;29.10;45.20
34406;DHT22;20658;45.630;8.886;2022-09-16T11:10:01;29.50;44.40
34406;DHT22;20658;45.630;8.886;2022-09-16T11:13:06;29.40;43.50
34406;DHT22;20658;45.630;8.886;2022-09-16T11:16:01;29.20;44.30
34406;DHT22;20658;45.630;8.886;2022-09-16T11:18:54;29.10;44.80
34406;DHT22;20658;45.630;8.886;2022-09-16T11:21:42;29.20;44.60
34406;DHT22;20658;45.630;8.886;2022-09-16T11:24:32;29.20;44.50
34406;DHT22;20658;45.630;8.886;2022-09-16T11:27:12;29.20;44.30
34406;DHT22;20658;45.630;8.886;2022-09-16T11:30:03;29.20;44.10
34406;DHT22;20658;45.630;8.886;2022-09-16T11:32:57;29.40;43.00
34406;DHT22;20658;45.630;8.886;2022-09-16T11:38:53;29.20;43.00
34406;DHT22;20658;45.630;8.886;2022-09-16T11:41:37;29.70;42.50
34406;DHT22;20658;45.630;8.886;2022-09-16T11:44:29;30.10;41.70
34406;DHT22;20658;45.630;8.886;2022-09-16T11:47:24;30.30;42.10
34406;DHT22;20658;45.630;8.886;2022-09-16T11:50:21;30.20;42.10
34406;DHT22;20658;45.630;8.886;2022-09-16T11:53:30;30.40;42.80
34406;DHT22;20658;45.630;8.886;2022-09-16T11:56:11;30.70;41.50
34406;DHT22;20658;45.630;8.886;2022-09-16T11:58:45;30.90;40.50
34406;DHT22;20658;45.630;8.886;2022-09-16T12:01:25;30.90;40.00
34406;DHT22;20658;45.630;8.886;2022-09-16T12:04:07;30.70;40.10
34406;DHT22;20658;45.630;8.886;2022-09-16T12:06:51;30.80;40.20
34406;DHT22;20658;45.630;8.886;2022-09-16T12:09:35;31.00;40.00
34406;DHT22;20658;45.630;8.886;2022-09-16T12:12:10;31.10;39.20
34406;DHT22;20658;45.630;8.886;2022-09-16T12:14:51;31.10;38.80
34406;DHT22;20658;45.630;8.886;2022-09-16T12:17:29;31.20;37.20
34406;DHT22;20658;45.630;8.886;2022-09-16T12:20:12;31.40;36.10
34406;DHT22;20658;45.630;8.886;2022-09-16T12:22:50;31.10;35.90
34406;DHT22;20658;45.630;8.886;2022-09-16T12:25:25;31.00;36.30
34406;DHT22;20658;45.630;8.886;2022-09-16T12:28:04;31.00;36.20
34406;DHT22;20658;45.630;8.886;2022-09-16T12:30:45;31.20;36.50
34406;DHT22;20658;45.630;8.886;2022-09-16T12:33:22;31.40;35.50
34406;DHT22;20658;45.630;8.886;2022-09-16T12:36:04;31.50;36.00
34406;DHT22;20658;45.630;8.886;2022-09-16T12:38:39;31.70;35.40
34406;DHT22;20658;45.630;8.886;2022-09-16T12:41:19;31.50;35.60
34406;DHT22;20658;45.630;8.886;2022-09-16T12:44:23;31.30;35.70
34406;DHT22;20658;45.630;8.886;2022-09-16T12:47:19;31.00;35.90
34406;DHT22;20658;45.630;8.886;2022-09-16T12:50:11;31.20;36.10
34406;DHT22;20658;45.630;8.886;2022-09-16T12:53:36;31.50;35.20
34406;DHT22;20658;45.630;8.886;2022-09-16T12:56:32;31.50;35.30
34406;DHT22;20658;45.630;8.886;2022-09-16T12:59:36;31.70;34.70
34406;DHT22;20658;45.630;8.886;2022-09-16T13:02:15;31.50;34.20
34406;DHT22;20658;45.630;8.886;2022-09-16T13:04:52;31.60;34.40
34406;DHT22;20658;45.630;8.886;2022-09-16T13:07:23;31.40;34.70
34406;DHT22;20658;45.630;8.886;2022-09-16T13:10:02;31.30;34.70
34406;DHT22;20658;45.630;8.886;2022-09-16T13:12:37;31.50;34.60
34406;DHT22;20658;45.630;8.886;2022-09-16T13:15:23;31.70;33.90
34406;DHT22;20658;45.630;8.886;2022-09-16T13:18:08;31.90;33.40
34406;DHT22;20658;45.630;8.886;2022-09-16T13:20:40;31.60;33.30
34406;DHT22;20658;45.630;8.886;2022-09-16T13:23:21;31.50;33.70
34406;DHT22;20658;45.630;8.886;2022-09-16T13:26:00;31.50;34.00
34406;DHT22;20658;45.630;8.886;2022-09-16T13:28:37;31.30;34.10
34406;DHT22;20658;45.630;8.886;2022-09-16T13:31:17;31.50;33.80
34406;DHT22;20658;45.630;8.886;2022-09-16T13:33:48;31.20;34.00
34406;DHT22;20658;45.630;8.886;2022-09-16T13:36:31;31.00;33.80
34406;DHT22;20658;45.630;8.886;2022-09-16T13:39:02;31.10;33.30
34406;DHT22;20658;45.630;8.886;2022-09-16T13:41:40;31.20;33.10
34406;DHT22;20658;45.630;8.886;2022-09-16T13:44:38;31.60;33.40
34406;DHT22;20658;45.630;8.886;2022-09-16T13:47:15;31.70;33.10
34406;DHT22;20658;45.630;8.886;2022-09-16T13:49:52;32.00;33.10
34406;DHT22;20658;45.630;8.886;2022-09-16T13:52:29;32.40;32.50
34406;DHT22;20658;45.630;8.886;2022-09-16T13:55:07;32.30;32.90
34406;DHT22;20658;45.630;8.886;2022-09-16T13:57:58;32.00;33.00
34406;DHT22;20658;45.630;8.886;2022-09-16T14:00:39;31.80;32.80
34406;DHT22;20658;45.630;8.886;2022-09-16T14:03:33;32.00;33.20
34406;DHT22;20658;45.630;8.886;2022-09-16T14:06:41;31.50;32.30
34406;DHT22;20658;45.630;8.886;2022-09-16T14:09:27;31.50;32.70
34406;DHT22;20658;45.630;8.886;2022-09-16T14:12:13;31.80;32.80
34406;DHT22;20658;45.630;8.886;2022-09-16T14:14:51;32.00;32.90
34406;DHT22;20658;45.630;8.886;2022-09-16T14:17:25;31.50;31.90
34406;DHT22;20658;45.630;8.886;2022-09-16T14:20:01;31.20;32.30
34406;DHT22;20658;45.630;8.886;2022-09-16T14:22:30;31.10;32.90
34406;DHT22;20658;45.630;8.886;2022-09-16T14:25:26;31.00;33.00
34406;DHT22;20658;45.630;8.886;2022-09-16T14:28:08;31.00;33.10
34406;DHT22;20658;45.630;8.886;2022-09-16T14:30:49;30.90;32.70
34406;DHT22;20658;45.630;8.886;2022-09-16T14:33:27;31.00;33.10
34406;DHT22;20658;45.630;8.886;2022-09-16T14:35:59;30.90;32.40
34406;DHT22;20658;45.630;8.886;2022-09-16T14:38:33;31.00;32.60
34406;DHT22;20658;45.630;8.886;2022-09-16T14:41:08;31.00;32.20
34406;DHT22;20658;45.630;8.886;2022-09-16T14:43:38;31.10;32.70
34406;DHT22;20658;45.630;8.886;2022-09-16T14:46:13;31.00;32.60
34406;DHT22;20658;45.630;8.886;2022-09-16T14:48:48;30.70;32.60
34406;DHT22;20658;45.630;8.886;2022-09-16T14:51:20;30.90;32.60
34406;DHT22;20658;45.630;8.886;2022-09-16T14:53:56;31.30;32.20
34406;DHT22;20658;45.630;8.886;2022-09-16T14:56:26;31.70;31.30
34406;DHT22;20658;45.630;8.886;2022-09-16T14:58:59;31.60;31.40
34406;DHT22;20658;45.630;8.886;2022-09-16T15:01:34;31.30;32.10
34406;DHT22;20658;45.630;8.886;2022-09-16T15:04:05;31.30;32.20
34406;DHT22;20658;45.630;8.886;2022-09-16T15:06:40;31.20;32.60
34406;DHT22;20658;45.630;8.886;2022-09-16T15:09:21;31.10;32.70
34406;DHT22;20658;45.630;8.886;2022-09-16T15:11:58;30.80;32.60
34406;DHT22;20658;45.630;8.886;2022-09-16T15:14:28;30.70;32.60
34406;DHT22;20658;45.630;8.886;2022-09-16T15:17:00;30.50;32.70
34406;DHT22;20658;45.630;8.886;2022-09-16T15:19:34;30.30;33.00
34406;DHT22;20658;45.630;8.886;2022-09-16T15:22:04;30.10;33.50
34406;DHT22;20658;45.630;8.886;2022-09-16T15:24:40;30.20;33.60
34406;DHT22;20658;45.630;8.886;2022-09-16T15:27:09;30.20;33.50
34406;DHT22;20658;45.630;8.886;2022-09-16T15:29:47;30.10;33.50
34406;DHT22;20658;45.630;8.886;2022-09-16T15:32:25;30.10;33.60
34406;DHT22;20658;45.630;8.886;2022-09-16T15:35:11;30.20;33.60
34406;DHT22;20658;45.630;8.886;2022-09-16T15:37:51;30.40;33.30
34406;DHT22;20658;45.630;8.886;2022-09-16T15:40:31;30.50;33.20
34406;DHT22;20658;45.630;8.886;2022-09-16T15:43:11;30.30;32.90
34406;DHT22;20658;45.630;8.886;2022-09-16T15:45:42;30.30;33.50
34406;DHT22;20658;45.630;8.886;2022-09-16T15:48:16;30.40;33.10
34406;DHT22;20658;45.630;8.886;2022-09-16T15:50:48;30.40;32.60
34406;DHT22;20658;45.630;8.886;2022-09-16T15:53:38;30.60;32.70
34406;DHT22;20658;45.630;8.886;2022-09-16T15:56:20;30.60;32.70
34406;DHT22;20658;45.630;8.886;2022-09-16T15:58:58;30.50;32.80
34406;DHT22;20658;45.630;8.886;2022-09-16T16:01:39;30.60;32.70
34406;DHT22;20658;45.630;8.886;2022-09-16T16:04:12;30.90;32.40
34406;DHT22;20658;45.630;8.886;2022-09-16T16:06:56;30.70;32.50
34406;DHT22;20658;45.630;8.886;2022-09-16T16:09:41;30.40;32.60
34406;DHT22;20658;45.630;8.886;2022-09-16T16:12:12;30.30;34.20
34406;DHT22;20658;45.630;8.886;2022-09-16T16:14:47;30.00;33.90
34406;DHT22;20658;45.630;8.886;2022-09-16T16:17:20;29.50;33.90
34406;DHT22;20658;45.630;8.886;2022-09-16T16:19:56;29.50;34.70
34406;DHT22;20658;45.630;8.886;2022-09-16T16:22:29;29.40;35.20
34406;DHT22;20658;45.630;8.886;2022-09-16T16:24:58;29.20;35.70
34406;DHT22;20658;45.630;8.886;2022-09-16T16:27:31;29.10;35.60
34406;DHT22;20658;45.630;8.886;2022-09-16T16:30:05;29.10;36.00
34406;DHT22;20658;45.630;8.886;2022-09-16T16:32:56;29.00;36.10
34406;DHT22;20658;45.630;8.886;2022-09-16T16:35:34;28.90;35.30
34406;DHT22;20658;45.630;8.886;2022-09-16T16:38:03;29.00;35.90
34406;DHT22;20658;45.630;8.886;2022-09-16T16:40:31;28.90;35.20
34406;DHT22;20658;45.630;8.886;2022-09-16T16:43:04;28.70;35.30
34406;DHT22;20658;45.630;8.886;2022-09-16T16:45:38;28.60;35.20